createdAt,value
2023-03-26T00:02:09.076Z,7.10
2023-03-26T00:04:37.396Z,15.60
2023-03-26T00:07:05.912Z,14.90
2023-03-26T00:09:34.149Z,14.80
2023-03-26T00:12:03.506Z,13.40
2023-03-26T00:14:35.634Z,15.50
2023-03-26T00:17:04.490Z,16.60
2023-03-26T00:19:34.052Z,17.20
2023-03-26T00:22:03.834Z,10.90
2023-03-26T00:24:32.490Z,13.60
2023-03-26T00:27:04.464Z,15.50
2023-03-26T00:29:37.336Z,17.90
2023-03-26T00:32:06.320Z,17.00
2023-03-26T00:34:35.404Z,15.70
2023-03-26T00:37:04.351Z,16.20
2023-03-26T00:39:35.223Z,14.20
2023-03-26T00:42:07.139Z,15.80
2023-03-26T00:44:35.914Z,21.20
2023-03-26T00:47:04.374Z,23.30
2023-03-26T00:49:33.265Z,21.50
2023-03-26T00:52:03.469Z,20.60
2023-03-26T00:54:32.878Z,21.40
2023-03-26T00:57:01.973Z,15.60
2023-03-26T00:59:32.138Z,18.50
2023-03-26T01:02:00.854Z,21.10
2023-03-26T01:04:34.784Z,21.50
2023-03-26T01:07:11.552Z,22.50
2023-03-26T01:09:45.210Z,23.70
2023-03-26T01:12:22.482Z,20.70
2023-03-26T01:14:53.611Z,20.10
2023-03-26T01:17:24.419Z,14.60
2023-03-26T01:19:56.530Z,15.40
2023-03-26T01:22:27.320Z,19.00
2023-03-26T01:24:56.951Z,17.50
2023-03-26T01:27:39.113Z,16.60
2023-03-26T01:30:25.479Z,15.90
2023-03-26T01:33:20.553Z,18.70
2023-03-26T01:36:24.893Z,19.80
2023-03-26T01:39:18.786Z,10.00
2023-03-26T01:42:36.404Z,21.40
2023-03-26T01:45:15.672Z,15.30
2023-03-26T01:47:46.597Z,15.60
2023-03-26T01:50:15.490Z,18.90
2023-03-26T01:52:44.308Z,15.40
2023-03-26T01:55:14.689Z,16.80
2023-03-26T01:57:53.331Z,10.20
2023-03-26T02:00:39.237Z,7.10
2023-03-26T02:03:17.782Z,7.70
2023-03-26T02:05:56.704Z,5.70
2023-03-26T02:08:38.208Z,4.30
2023-03-26T02:11:11.881Z,3.70
2023-03-26T02:13:43.801Z,3.30
2023-03-26T02:16:16.587Z,3.60
2023-03-26T02:18:51.597Z,5.50
2023-03-26T02:23:57.997Z,2.80
2023-03-26T02:26:26.560Z,1.50
2023-03-26T02:29:14.468Z,1.10
2023-03-26T02:31:49.720Z,1.50
2023-03-26T02:34:18.748Z,1.00
2023-03-26T02:36:51.647Z,1.00
2023-03-26T02:39:21.015Z,0.90
2023-03-26T02:42:03.625Z,0.90
2023-03-26T02:44:34.474Z,1.40
2023-03-26T02:47:02.851Z,1.00
2023-03-26T02:49:44.446Z,1.60
2023-03-26T02:54:48.584Z,0.90
2023-03-26T02:57:22.975Z,1.90
2023-03-26T03:00:14.180Z,0.60
2023-03-26T03:02:53.092Z,1.10
2023-03-26T03:05:47.368Z,0.90
2023-03-26T03:08:46.292Z,0.90
2023-03-26T03:11:32.999Z,1.20
2023-03-26T03:14:01.382Z,1.90
2023-03-26T03:16:31.348Z,1.30
2023-03-26T03:19:06.455Z,1.20
2023-03-26T03:21:40.456Z,0.50
2023-03-26T03:24:11.763Z,0.70
2023-03-26T03:26:47.888Z,2.40
2023-03-26T03:29:36.444Z,2.50
2023-03-26T03:32:24.768Z,2.10
2023-03-26T03:34:56.671Z,2.00
2023-03-26T03:37:27.244Z,1.10
2023-03-26T03:39:56.681Z,1.40
2023-03-26T03:42:28.101Z,3.60
2023-03-26T03:44:58.763Z,1.90
2023-03-26T03:48:09.395Z,2.40
2023-03-26T03:50:42.953Z,3.00
2023-03-26T03:53:26.389Z,2.10
2023-03-26T03:56:17.637Z,3.10
2023-03-26T03:59:05.368Z,1.80
2023-03-26T04:01:35.322Z,1.70
2023-03-26T04:04:09.862Z,1.20
2023-03-26T04:06:49.237Z,4.40
2023-03-26T04:09:17.936Z,3.10
2023-03-26T04:11:51.205Z,1.70
2023-03-26T04:14:48.277Z,2.80
2023-03-26T04:17:22.068Z,3.30
2023-03-26T04:19:55.170Z,2.50
2023-03-26T04:22:36.604Z,3.10
2023-03-26T04:25:11.224Z,6.20
2023-03-26T04:27:46.432Z,2.50
2023-03-26T04:30:47.241Z,4.50
2023-03-26T04:33:55.412Z,3.40
2023-03-26T04:36:27.664Z,3.20
2023-03-26T04:39:02.488Z,5.80
2023-03-26T04:41:52.047Z,4.40
2023-03-26T04:44:25.381Z,9.60
2023-03-26T04:47:01.759Z,7.40
2023-03-26T04:49:37.129Z,4.10
2023-03-26T04:52:07.722Z,2.90
2023-03-26T04:54:54.824Z,3.70
2023-03-26T04:57:39.555Z,3.00
2023-03-26T05:00:20.542Z,1.90
2023-03-26T05:02:56.343Z,4.00
2023-03-26T05:05:28.395Z,2.00
2023-03-26T05:07:58.868Z,2.90
2023-03-26T05:10:28.633Z,1.70
2023-03-26T05:13:04.641Z,1.40
2023-03-26T05:15:39.758Z,2.20
2023-03-26T05:18:33.619Z,2.30
2023-03-26T05:21:02.938Z,2.30
2023-03-26T05:23:31.796Z,1.80
2023-03-26T05:26:14.981Z,1.80
2023-03-26T05:28:43.599Z,2.20
2023-03-26T05:31:35.185Z,2.70
2023-03-26T05:34:04.027Z,1.30
2023-03-26T05:36:35.021Z,1.80
2023-03-26T05:39:30.101Z,2.50
2023-03-26T05:42:01.386Z,3.40
2023-03-26T05:44:37.818Z,2.30
2023-03-26T05:47:10.913Z,3.10
2023-03-26T05:49:39.235Z,2.40
2023-03-26T05:52:08.486Z,4.70
2023-03-26T05:54:55.470Z,6.30
2023-03-26T05:57:43.056Z,5.90
2023-03-26T06:00:43.236Z,5.20
2023-03-26T06:03:14.931Z,4.40
2023-03-26T06:06:10.117Z,4.50
2023-03-26T06:09:01.846Z,5.00
2023-03-26T06:11:34.787Z,2.40
2023-03-26T06:14:09.219Z,2.10
2023-03-26T06:16:40.489Z,2.90
2023-03-26T06:19:23.147Z,3.30
2023-03-26T06:22:06.115Z,4.70
2023-03-26T06:24:53.005Z,1.20
2023-03-26T06:27:47.412Z,2.70
2023-03-26T06:30:46.310Z,2.40
2023-03-26T06:33:24.647Z,1.80
2023-03-26T06:35:53.576Z,3.20
2023-03-26T06:38:24.715Z,3.70
2023-03-26T06:40:53.548Z,2.00
2023-03-26T06:43:24.878Z,3.50
2023-03-26T06:46:19.043Z,2.30
2023-03-26T06:49:06.683Z,4.10
2023-03-26T06:51:41.671Z,3.80
2023-03-26T06:54:31.772Z,2.80
2023-03-26T06:57:11.467Z,3.10
2023-03-26T07:00:15.612Z,3.20
2023-03-26T07:03:04.495Z,2.10
2023-03-26T07:05:52.036Z,2.10
2023-03-26T07:08:39.807Z,4.60
2023-03-26T07:11:40.522Z,2.60
2023-03-26T07:14:30.683Z,2.20
2023-03-26T07:17:11.823Z,2.30
2023-03-26T07:20:08.161Z,1.70
2023-03-26T07:22:37.451Z,2.60
2023-03-26T07:25:07.317Z,1.60
2023-03-26T07:28:20.653Z,2.10
2023-03-26T07:31:36.332Z,6.40
2023-03-26T07:34:44.681Z,2.50
2023-03-26T07:37:44.516Z,3.20
2023-03-26T07:40:44.322Z,2.30
2023-03-26T07:43:41.140Z,3.80
2023-03-26T07:46:37.266Z,1.90
2023-03-26T07:49:32.994Z,2.10
2023-03-26T07:52:20.819Z,2.30
2023-03-26T07:55:01.311Z,2.80
2023-03-26T07:57:39.170Z,2.50
2023-03-26T08:00:46.709Z,2.50
2023-03-26T08:03:30.501Z,3.40
2023-03-26T08:06:33.922Z,3.10
2023-03-26T08:09:23.944Z,2.70
2023-03-26T08:12:27.210Z,2.30
2023-03-26T08:15:12.362Z,3.70
2023-03-26T08:17:57.157Z,2.40
2023-03-26T08:20:31.325Z,2.90
2023-03-26T08:23:07.841Z,2.40
2023-03-26T08:26:02.707Z,2.90
2023-03-26T08:28:46.123Z,2.20
2023-03-26T08:31:17.976Z,4.70
2023-03-26T08:36:14.693Z,2.40
2023-03-26T08:38:44.439Z,3.70
2023-03-26T08:41:15.313Z,3.80
2023-03-26T08:44:16.597Z,3.50
2023-03-26T08:46:49.030Z,3.10
2023-03-26T08:49:39.180Z,4.70
2023-03-26T08:52:25.849Z,4.30
2023-03-26T08:55:15.657Z,4.30
2023-03-26T08:57:56.322Z,5.30
2023-03-26T09:00:37.269Z,4.70
2023-03-26T09:03:13.722Z,6.40
